Ann Arbor, MI

2:54 AM EST on February 11, 2016 (GMT -0500)
Polo Fields | | Change Station
CLOSE
Current Station
Personal Weather Station
Location: Ann Arbor, MI
Elevation: 912 ft
Nearby Weather Stations

Elev 912 ft 42.27 °N, 83.82 °W | Updated 24 seconds ago

Partly Cloudy
Partly Cloudy
6.4 °F
Feels Like 6 °F
N
1.1
Wind Variable Wind from SSW
Gusts 3.2 mph

Today
High -- | Low -- °F
--% Chance of Precip.
Yesterday
High -- | Low -- °F
Precip. -- in
Pressure 30.09 in
Visibility 10.0 miles
Clouds Scattered Clouds 2600 ft
Windchill 6 °F
Dew Point 4 °F
Humidity 88%
Rainfall 0.00 in
Snow Depth Not available.
7:37 AM 6:01 PM
Waxing Crescent, 10% visible
METAR KARB 110653Z AUTO 28006KT 10SM SCT026 M13/M17 A3005 RMK AO2 SLP190 T11331167 TSNO
Pressure 30.09 in
Visibility 10.0 miles
Clouds Scattered Clouds 2600 ft
Windchill 6 °F
Dew Point 4 °F
Humidity 88%
Rainfall 0.00 in
Snow Depth Not available.
7:37 AM 6:01 PM
Waxing Crescent, 10% visible
METAR KARB 110653Z AUTO 28006KT 10SM SCT026 M13/M17 A3005 RMK AO2 SLP190 T11331167 TSNO

10-Day Weather Forecast

Almanac

Astronomy

Feb. 11, 2016 Rise Set
Actual Time
Civil Twilight
Nautical Twilight
Astronomical Twilight
Moon
Length of Visible Light
Length of Day
Tomorrow will be .
, % of the Moon is Illuminated

Today's Extremes

State Highs State Lows

Community

WunderPhotos

Upload Photos

1,892,030 photos uploaded!

WunderBlog® & News

Nearby

Air Quality

  Air Quality AQ Index Pollutant
Not available.

Snow Depth

Station Depth Elevation

Earthquake Activity

City Distance Mag. Time & Date
Minimum magnitude displayed is 2.5.

Coastal Water Temperatures

Place Temperature

Stations

Nearby Weather Stations

Station Location Temp. Windchill Dew Point Humidity Wind Precip. Elev Updated Type
                   

Watches & Warnings

There are currently no watches in effect.